Time;durP1;ratioP1;P1;durP2;ratioP2;P2;SDS_P1;SDS_P2;PMS_P1;PMS_P2;Temp;Humidity;BMP_temperature;BMP_pressure;BME280_temperature;BME280_humidity;BME280_pressure;Samples;Min_cycle;Max_cycle;Signal;HPM_P1;HPM_P2
2021/01/09 00:00:33;;;;;;;25.00;17.25;;;1.60;99.90;;;;;;5016589;28;20194;-87
2021/01/09 00:03:00;;;;;;;24.13;17.70;;;1.60;99.90;;;;;;5016913;28;20349;-87
2021/01/09 00:05:27;;;;;;;25.77;16.27;;;1.60;99.90;;;;;;5021031;28;20225;-87
2021/01/09 00:07:53;;;;;;;22.48;15.00;;;1.60;99.90;;;;;;5027795;28;20593;-87
2021/01/09 00:10:19;;;;;;;21.40;14.60;;;1.60;99.90;;;;;;5036125;28;20223;-87
2021/01/09 00:12:46;;;;;;;21.50;15.25;;;1.60;99.90;;;;;;5036585;28;20194;-87
2021/01/09 00:15:12;;;;;;;19.52;12.93;;;1.50;99.90;;;;;;5036330;28;20256;-85
2021/01/09 00:17:39;;;;;;;22.15;14.85;;;1.50;99.90;;;;;;5034895;28;20711;-87
2021/01/09 00:20:08;;;;;;;22.73;14.90;;;1.50;99.90;;;;;;5036005;28;20201;-88
2021/01/09 00:22:34;;;;;;;25.15;15.35;;;1.60;99.90;;;;;;5055172;28;20250;-87
2021/01/09 00:25:01;;;;;;;22.85;14.65;;;1.50;99.90;;;;;;5039605;28;20238;-87
2021/01/09 00:27:27;;;;;;;26.55;14.55;;;1.50;99.90;;;;;;5037741;28;20252;-87
2021/01/09 00:29:53;;;;;;;22.23;13.65;;;1.50;99.90;;;;;;5037114;28;20202;-86
2021/01/09 00:32:20;;;;;;;22.15;15.07;;;1.50;99.90;;;;;;5038535;28;20655;-87
2021/01/09 00:34:46;;;;;;;19.67;14.15;;;1.50;99.90;;;;;;5038729;28;20228;-86
2021/01/09 00:37:13;;;;;;;22.65;14.13;;;1.60;99.90;;;;;;5030974;28;20191;-88
2021/01/09 00:39:39;;;;;;;23.88;14.93;;;1.60;99.90;;;;;;5039510;28;20208;-87
2021/01/09 00:42:06;;;;;;;19.60;12.60;;;1.60;99.90;;;;;;5039326;28;20286;-87
2021/01/09 00:44:32;;;;;;;21.45;13.40;;;1.60;99.90;;;;;;5039414;28;20221;-85
2021/01/09 00:46:59;;;;;;;21.45;14.15;;;1.60;99.90;;;;;;5039579;28;20341;-86
2021/01/09 00:49:26;;;;;;;20.08;12.73;;;1.60;99.90;;;;;;5039628;28;20206;-85
2021/01/09 00:51:53;;;;;;;22.92;14.63;;;1.60;99.90;;;;;;5039546;28;20265;-88
2021/01/09 00:54:20;;;;;;;19.05;13.20;;;1.60;99.90;;;;;;5040204;28;20221;-87
2021/01/09 00:56:46;;;;;;;20.38;13.27;;;1.60;99.90;;;;;;5040949;28;20205;-87
2021/01/09 00:59:12;;;;;;;26.63;13.20;;;1.70;99.90;;;;;;5040830;28;20205;-88
2021/01/09 01:01:39;;;;;;;26.73;12.27;;;1.60;99.90;;;;;;5040533;28;20572;-88
2021/01/09 01:04:05;;;;;;;19.23;12.57;;;1.60;99.90;;;;;;5039990;28;20222;-87
2021/01/09 01:06:31;;;;;;;15.15;12.77;;;1.50;99.90;;;;;;5030576;28;20203;-88
2021/01/09 01:08:57;;;;;;;19.20;13.18;;;1.50;99.90;;;;;;5039792;28;20273;-87
2021/01/09 01:11:27;;;;;;;21.08;13.77;;;1.60;99.90;;;;;;5041702;28;20198;-87
2021/01/09 01:13:54;;;;;;;21.52;13.32;;;1.60;99.90;;;;;;5040658;28;20245;-88
2021/01/09 01:16:20;;;;;;;20.00;13.00;;;1.50;99.90;;;;;;5040438;28;20267;-88
2021/01/09 01:18:46;;;;;;;21.08;12.80;;;1.60;99.90;;;;;;5039916;28;20247;-87
2021/01/09 01:21:13;;;;;;;18.38;11.63;;;1.60;99.90;;;;;;5040011;28;20315;-87
2021/01/09 01:23:39;;;;;;;18.45;13.85;;;1.60;99.90;;;;;;5040304;28;20228;-87
2021/01/09 01:26:08;;;;;;;19.50;13.73;;;1.60;99.90;;;;;;5039441;28;20218;-88
2021/01/09 01:28:35;;;;;;;18.05;11.82;;;1.60;99.90;;;;;;5039835;28;20598;-87
2021/01/09 01:31:02;;;;;;;18.17;13.18;;;1.60;99.90;;;;;;5040295;28;20271;-87
2021/01/09 01:33:28;;;;;;;20.95;13.30;;;1.60;99.90;;;;;;5040098;28;20201;-88
2021/01/09 01:35:56;;;;;;;21.00;12.38;;;1.70;99.90;;;;;;5038541;28;20775;-87
2021/01/09 01:38:22;;;;;;;22.70;12.60;;;1.70;99.90;;;;;;5032125;28;20206;-87
2021/01/09 01:40:48;;;;;;;17.92;11.93;;;1.70;99.90;;;;;;5040271;28;20197;-87
2021/01/09 01:43:15;;;;;;;18.17;12.45;;;1.70;99.90;;;;;;5039027;28;20224;-88
2021/01/09 01:45:43;;;;;;;18.40;12.90;;;1.80;99.90;;;;;;5038454;28;20229;-88
2021/01/09 01:48:11;;;;;;;16.15;11.85;;;1.80;99.90;;;;;;5038341;28;20573;-86
2021/01/09 01:50:39;;;;;;;20.85;14.15;;;1.80;99.90;;;;;;5038232;28;20202;-87
2021/01/09 01:53:06;;;;;;;16.20;12.68;;;1.90;99.90;;;;;;5037709;28;20198;-86
2021/01/09 01:55:33;;;;;;;18.30;11.77;;;1.80;99.90;;;;;;5038441;28;20219;-88
2021/01/09 01:57:59;;;;;;;16.83;10.80;;;1.80;99.90;;;;;;5038418;28;20206;-86
2021/01/09 02:00:27;;;;;;;19.38;12.43;;;1.80;99.90;;;;;;5038727;28;20195;-87
2021/01/09 02:02:54;;;;;;;17.65;10.90;;;1.90;99.90;;;;;;5038688;28;20218;-87
2021/01/09 02:05:23;;;;;;;16.35;11.50;;;1.90;99.90;;;;;;5038369;28;20227;-87
2021/01/09 02:07:54;;;;;;;16.90;12.18;;;1.80;99.90;;;;;;5031195;28;20193;-85
2021/01/09 02:10:22;;;;;;;16.40;11.00;;;1.80;99.90;;;;;;5038961;28;20567;-87
2021/01/09 02:12:58;;;;;;;21.48;12.50;;;1.90;99.90;;;;;;5039070;28;20203;-87
2021/01/09 02:15:25;;;;;;;17.75;11.60;;;1.90;99.90;;;;;;5038867;28;20268;-87
2021/01/09 02:17:52;;;;;;;19.90;12.15;;;1.90;99.90;;;;;;5038766;28;20213;-86
2021/01/09 02:20:20;;;;;;;22.27;12.30;;;1.90;99.90;;;;;;5038883;28;20234;-87
2021/01/09 02:22:47;;;;;;;18.55;10.88;;;1.90;99.90;;;;;;5039163;28;20214;-88
2021/01/09 02:25:13;;;;;;;14.70;11.00;;;1.90;99.90;;;;;;5039262;28;20228;-87
2021/01/09 02:27:40;;;;;;;17.67;11.88;;;1.90;99.90;;;;;;5038498;28;20196;-87
2021/01/09 02:30:10;;;;;;;16.42;11.05;;;1.90;99.90;;;;;;5038511;28;20220;-87
2021/01/09 02:32:44;;;;;;;22.02;12.05;;;1.80;99.90;;;;;;5038945;28;20240;-88
2021/01/09 02:35:13;;;;;;;19.13;10.98;;;1.90;99.90;;;;;;5038348;28;20225;-86
2021/01/09 02:37:41;;;;;;;22.50;12.77;;;1.90;99.90;;;;;;5031028;28;20554;-86
2021/01/09 02:40:09;;;;;;;17.98;11.40;;;1.90;99.90;;;;;;5039116;28;20198;-87
2021/01/09 02:42:36;;;;;;;19.55;11.38;;;1.80;99.90;;;;;;5038421;28;20229;-86
2021/01/09 02:45:04;;;;;;;17.52;10.93;;;1.90;99.90;;;;;;5038458;28;20244;-87
2021/01/09 02:47:30;;;;;;;18.17;11.57;;;1.90;99.90;;;;;;5038317;28;20205;-86
2021/01/09 02:49:56;;;;;;;20.95;12.20;;;1.80;99.90;;;;;;5038647;28;20195;-86
2021/01/09 02:52:23;;;;;;;17.75;12.82;;;1.70;99.90;;;;;;5039037;28;20635;-87
2021/01/09 02:54:49;;;;;;;18.58;12.13;;;1.50;99.90;;;;;;5039316;28;20221;-88
2021/01/09 02:57:16;;;;;;;17.05;11.25;;;1.50;99.90;;;;;;5050896;28;20195;-87
2021/01/09 02:59:42;;;;;;;21.92;12.20;;;1.50;99.90;;;;;;5038576;28;20267;-87
2021/01/09 03:02:09;;;;;;;22.92;13.02;;;1.60;99.90;;;;;;5038791;28;20209;-87
2021/01/09 03:04:35;;;;;;;20.50;13.73;;;1.70;99.90;;;;;;5038615;28;20228;-87
2021/01/09 03:07:01;;;;;;;20.42;12.57;;;1.70;99.90;;;;;;5029959;28;20305;-87
2021/01/09 03:09:27;;;;;;;21.77;13.90;;;1.80;99.90;;;;;;5037682;28;20721;-87
2021/01/09 03:11:54;;;;;;;19.73;12.55;;;1.80;99.90;;;;;;5038341;28;20205;-87
2021/01/09 03:14:21;;;;;;;21.25;13.55;;;1.80;99.90;;;;;;5038252;28;20272;-87
2021/01/09 03:16:47;;;;;;;21.13;13.13;;;1.70;99.90;;;;;;5038524;28;20194;-87
2021/01/09 03:19:13;;;;;;;18.70;12.55;;;1.70;99.90;;;;;;5038532;28;20193;-88
2021/01/09 03:21:40;;;;;;;20.90;11.88;;;1.60;99.90;;;;;;5038174;28;20197;-87
2021/01/09 03:24:07;;;;;;;18.63;12.25;;;1.50;99.90;;;;;;5038061;28;20221;-88
2021/01/09 03:26:33;;;;;;;22.75;13.07;;;1.40;99.90;;;;;;5038766;28;20669;-88
2021/01/09 03:28:59;;;;;;;15.75;11.35;;;1.40;99.90;;;;;;5038295;28;20197;-87
2021/01/09 03:31:28;;;;;;;20.98;11.43;;;1.20;99.90;;;;;;5038274;28;20206;-86
2021/01/09 03:33:54;;;;;;;22.60;11.73;;;1.10;99.90;;;;;;5037544;28;20242;-87
2021/01/09 03:36:20;;;;;;;17.80;11.50;;;1.10;99.90;;;;;;5037843;28;20199;-86
2021/01/09 03:38:47;;;;;;;16.55;11.10;;;1.10;99.90;;;;;;5021531;28;20189;-88
2021/01/09 03:41:13;;;;;;;16.90;11.07;;;1.00;99.90;;;;;;5017842;28;20204;-88
2021/01/09 03:43:39;;;;;;;16.77;9.93;;;0.90;99.90;;;;;;5017919;28;20222;-87
2021/01/09 03:46:06;;;;;;;17.98;11.60;;;0.80;99.90;;;;;;5017368;28;20217;-87
2021/01/09 03:48:33;;;;;;;23.02;13.50;;;0.80;99.90;;;;;;5017988;28;20284;-87
2021/01/09 03:50:59;;;;;;;17.80;12.15;;;0.70;99.90;;;;;;5018070;28;20207;-87
2021/01/09 03:53:25;;;;;;;16.75;11.65;;;0.70;99.90;;;;;;5018335;28;20212;-87
2021/01/09 03:55:52;;;;;;;15.70;11.60;;;0.60;99.90;;;;;;5017662;28;20216;-87
2021/01/09 03:58:18;;;;;;;19.83;11.77;;;0.50;99.90;;;;;;5018632;28;20658;-88
2021/01/09 04:00:44;;;;;;;17.92;12.40;;;0.60;99.90;;;;;;5019046;28;20205;-86
2021/01/09 04:03:10;;;;;;;18.30;11.63;;;0.50;99.90;;;;;;5024549;28;20295;-87
2021/01/09 04:05:38;;;;;;;18.25;12.20;;;0.40;99.90;;;;;;5086818;23;20223;-80
2021/01/09 04:08:05;;;;;;;21.50;12.10;;;0.30;99.90;;;;;;5007826;28;20198;-80
2021/01/09 04:10:31;;;;;;;21.40;11.90;;;0.30;99.90;;;;;;5022525;28;20188;-80
2021/01/09 04:12:57;;;;;;;19.15;11.93;;;0.30;99.90;;;;;;5022549;28;20194;-79
2021/01/09 04:15:23;;;;;;;16.15;11.05;;;0.30;99.90;;;;;;5017418;28;20231;-79
2021/01/09 04:17:50;;;;;;;25.50;13.55;;;0.40;99.90;;;;;;5013248;28;20201;-79
2021/01/09 04:20:16;;;;;;;23.02;13.55;;;0.40;99.90;;;;;;5015087;28;20201;-79
2021/01/09 04:22:43;;;;;;;16.15;10.18;;;0.50;99.90;;;;;;5014902;28;20217;-79
2021/01/09 04:25:11;;;;;;;14.25;9.82;;;0.50;99.90;;;;;;5015913;28;20229;-80
2021/01/09 04:27:37;;;;;;;17.08;12.02;;;0.50;99.90;;;;;;5017097;28;20202;-80
2021/01/09 04:30:04;;;;;;;19.13;12.20;;;0.60;99.90;;;;;;5017935;28;20402;-80
2021/01/09 04:32:32;;;;;;;24.40;13.90;;;0.60;99.90;;;;;;5021885;28;20260;-80
2021/01/09 04:34:58;;;;;;;20.50;11.65;;;0.60;99.90;;;;;;5021341;28;20205;-80
2021/01/09 04:37:25;;;;;;;27.02;13.35;;;0.70;99.90;;;;;;5026419;28;20206;-80
2021/01/09 04:39:52;;;;;;;17.67;11.88;;;0.70;99.90;;;;;;5023642;28;20194;-81
2021/01/09 04:42:18;;;;;;;20.90;12.50;;;0.70;99.90;;;;;;5030649;28;20285;-80
2021/01/09 04:44:45;;;;;;;19.45;12.27;;;0.60;99.90;;;;;;5022572;28;20198;-80
2021/01/09 04:47:12;;;;;;;21.15;11.98;;;0.60;99.90;;;;;;5022034;28;20214;-79
2021/01/09 04:49:40;;;;;;;16.38;11.90;;;0.60;99.90;;;;;;5022084;28;20265;-80
2021/01/09 04:52:07;;;;;;;18.92;12.38;;;0.60;99.90;;;;;;5021524;28;20244;-80
2021/01/09 04:54:36;;;;;;;19.23;12.10;;;0.50;99.90;;;;;;5022130;28;20201;-79
2021/01/09 04:57:03;;;;;;;19.23;10.90;;;0.50;99.90;;;;;;5021590;28;20227;-81
2021/01/09 04:59:30;;;;;;;22.90;13.43;;;0.50;99.90;;;;;;5021715;28;20200;-80
2021/01/09 05:01:57;;;;;;;21.75;13.10;;;0.50;99.90;;;;;;5021246;28;20253;-77
2021/01/09 05:04:23;;;;;;;19.38;13.00;;;0.50;99.90;;;;;;5021418;28;20216;-80
2021/01/09 05:06:50;;;;;;;21.40;11.80;;;0.50;99.90;;;;;;5026083;28;20217;-80
2021/01/09 05:09:17;;;;;;;17.73;12.32;;;0.60;99.90;;;;;;5013235;28;20200;-80
2021/01/09 05:11:43;;;;;;;21.73;13.93;;;0.60;99.90;;;;;;5021457;28;20202;-80
2021/01/09 05:14:11;;;;;;;23.90;14.85;;;0.70;99.90;;;;;;5021611;28;20193;-78
2021/01/09 05:16:39;;;;;;;24.15;14.07;;;0.70;99.90;;;;;;5021173;28;20221;-80
2021/01/09 05:19:06;;;;;;;22.00;13.05;;;0.80;99.90;;;;;;5020598;28;20288;-80
2021/01/09 05:21:36;;;;;;;22.52;13.63;;;0.90;99.90;;;;;;5020347;28;20256;-79
2021/01/09 05:24:03;;;;;;;23.15;12.93;;;0.90;99.90;;;;;;5021180;28;20273;-80
2021/01/09 05:26:31;;;;;;;27.48;13.50;;;1.00;99.90;;;;;;5020698;28;20222;-80
2021/01/09 05:28:58;;;;;;;26.20;13.80;;;1.00;99.90;;;;;;5021139;28;20636;-78
2021/01/09 05:31:27;;;;;;;23.83;14.20;;;1.10;99.90;;;;;;5020793;28;20211;-80
2021/01/09 05:33:54;;;;;;;21.92;13.57;;;1.20;99.90;;;;;;5021700;28;20198;-80
2021/01/09 05:36:21;;;;;;;26.08;14.45;;;1.20;99.90;;;;;;5020002;28;20221;-79
2021/01/09 05:38:49;;;;;;;22.98;15.00;;;1.30;99.90;;;;;;5021083;28;20252;-78
2021/01/09 05:41:16;;;;;;;27.23;14.15;;;1.30;99.90;;;;;;5021543;28;20252;-79
2021/01/09 05:43:46;;;;;;;27.55;15.52;;;1.30;99.90;;;;;;5020482;28;20220;-80
2021/01/09 05:46:12;;;;;;;28.77;16.33;;;1.30;99.90;;;;;;5020614;28;20230;-80
2021/01/09 05:48:41;;;;;;;26.60;15.82;;;1.30;99.90;;;;;;5020583;28;20209;-80
2021/01/09 05:51:07;;;;;;;22.83;15.45;;;1.30;99.90;;;;;;5019788;28;20195;-80
2021/01/09 05:53:41;;;;;;;26.38;14.32;;;1.30;99.90;;;;;;5021335;28;20225;-80
2021/01/09 05:56:09;;;;;;;27.52;14.52;;;1.30;99.90;;;;;;5020367;28;20224;-80
2021/01/09 05:58:36;;;;;;;30.13;16.85;;;1.30;99.90;;;;;;5021270;28;20199;-79
2021/01/09 06:01:08;;;;;;;29.38;15.25;;;1.40;99.90;;;;;;5024091;28;20211;-78
2021/01/09 06:03:43;;;;;;;20.00;13.55;;;1.30;99.90;;;;;;5023740;28;20214;-79
2021/01/09 06:06:26;;;;;;;27.17;13.98;;;1.20;99.90;;;;;;5029424;28;20233;-79
2021/01/09 06:08:55;;;;;;;30.90;15.65;;;1.30;99.90;;;;;;5023242;28;20186;-81
2021/01/09 06:11:31;;;;;;;30.88;15.88;;;1.30;99.90;;;;;;5024694;28;20204;-81
2021/01/09 06:14:03;;;;;;;29.80;16.45;;;1.40;99.90;;;;;;5024381;28;20219;-80
2021/01/09 06:16:31;;;;;;;29.38;17.13;;;1.40;99.90;;;;;;5022374;28;20221;-79
2021/01/09 06:18:59;;;;;;;41.20;20.33;;;1.40;99.90;;;;;;5023930;28;20200;-78
2021/01/09 06:21:27;;;;;;;32.42;17.15;;;1.40;99.90;;;;;;5023578;28;20256;-80
2021/01/09 06:23:55;;;;;;;36.38;20.00;;;1.50;99.90;;;;;;5022999;28;20218;-82
2021/01/09 06:26:22;;;;;;;30.48;18.10;;;1.40;99.90;;;;;;5022478;28;20221;-81
2021/01/09 06:28:52;;;;;;;36.35;19.63;;;1.40;99.90;;;;;;5023503;28;20207;-80
2021/01/09 06:31:21;;;;;;;35.03;18.05;;;1.50;99.90;;;;;;5022636;28;20184;-80
2021/01/09 06:33:50;;;;;;;38.95;18.92;;;1.50;99.90;;;;;;5022997;28;20191;-80
2021/01/09 06:36:18;;;;;;;31.83;18.40;;;1.50;99.90;;;;;;5031451;28;20219;-81
2021/01/09 06:38:47;;;;;;;50.65;20.70;;;1.50;99.90;;;;;;5027996;28;20192;-80
2021/01/09 06:41:15;;;;;;;46.38;18.83;;;1.50;99.90;;;;;;5023304;28;20188;-80
2021/01/09 06:43:45;;;;;;;38.85;17.63;;;1.50;99.90;;;;;;5022666;28;20214;-80
2021/01/09 06:46:12;;;;;;;45.35;19.23;;;1.50;99.90;;;;;;5021690;28;20218;-80
2021/01/09 06:48:44;;;;;;;40.88;18.85;;;1.50;99.90;;;;;;5021738;28;20201;-80
2021/01/09 06:51:51;;;;;;;39.47;20.75;;;1.50;99.90;;;;;;5022104;28;20187;-80
2021/01/09 06:54:25;;;;;;;36.25;18.33;;;1.50;99.90;;;;;;5022616;28;20192;-81
2021/01/09 06:57:08;;;;;;;40.70;20.20;;;1.40;99.90;;;;;;5022284;28;20692;-80
2021/01/09 06:59:35;;;;;;;32.00;18.13;;;1.40;99.90;;;;;;5023062;28;20215;-79
2021/01/09 07:02:12;;;;;;;34.58;17.65;;;1.30;99.90;;;;;;5021796;28;20194;-80
2021/01/09 07:04:56;;;;;;;52.95;19.15;;;1.30;99.90;;;;;;5022597;28;20227;-80
2021/01/09 07:07:39;;;;;;;38.70;19.23;;;1.40;99.90;;;;;;5027215;28;20206;-80
2021/01/09 07:10:13;;;;;;;43.92;21.70;;;1.50;99.90;;;;;;5022539;28;20200;-79
2021/01/09 07:12:41;;;;;;;42.17;20.58;;;1.50;99.90;;;;;;5022592;28;20187;-80
2021/01/09 07:15:10;;;;;;;28.33;17.10;;;1.40;99.90;;;;;;5023171;28;20196;-80
2021/01/09 07:17:40;;;;;;;35.88;19.15;;;1.40;99.90;;;;;;5022208;28;20197;-80
2021/01/09 07:20:08;;;;;;;45.05;21.05;;;1.40;99.90;;;;;;5021862;28;20207;-79
2021/01/09 07:22:39;;;;;;;41.63;18.15;;;1.40;99.90;;;;;;5019155;28;20200;-79
2021/01/09 07:25:08;;;;;;;83.90;26.00;;;1.40;99.90;;;;;;5022427;28;20195;-79
2021/01/09 07:27:39;;;;;;;39.17;20.48;;;1.40;99.90;;;;;;5021463;28;20201;-79
2021/01/09 07:30:13;;;;;;;55.78;21.63;;;1.40;99.90;;;;;;5020570;28;20184;-79
2021/01/09 07:32:45;;;;;;;55.55;19.42;;;1.50;99.90;;;;;;5020241;28;20201;-79
2021/01/09 07:35:13;;;;;;;53.15;21.88;;;1.50;99.90;;;;;;5020602;28;20196;-79
2021/01/09 07:37:41;;;;;;;42.60;19.50;;;1.50;99.90;;;;;;5023701;28;20230;-79
2021/01/09 07:40:16;;;;;;;48.60;20.38;;;1.50;99.90;;;;;;5019923;28;20680;-78
2021/01/09 07:42:44;;;;;;;45.65;21.33;;;1.50;99.90;;;;;;5019821;28;20203;-80
2021/01/09 07:45:11;;;;;;;79.63;20.90;;;1.50;99.90;;;;;;5019911;28;20205;-80
2021/01/09 07:47:40;;;;;;;44.50;19.42;;;1.50;99.90;;;;;;5019390;28;20251;-79
2021/01/09 07:50:08;;;;;;;83.70;19.83;;;1.50;99.90;;;;;;5020420;28;20207;-78
2021/01/09 07:52:35;;;;;;;53.00;18.70;;;1.50;99.90;;;;;;5020086;28;20242;-79
2021/01/09 07:55:03;;;;;;;67.45;19.60;;;1.40;99.90;;;;;;5019714;28;20199;-79
2021/01/09 07:57:31;;;;;;;60.63;20.35;;;1.30;99.90;;;;;;5019822;28;20246;-78
2021/01/09 08:00:05;;;;;;;48.00;20.13;;;1.30;99.90;;;;;;5020248;28;20628;-80
2021/01/09 08:02:33;;;;;;;56.58;20.15;;;1.30;99.90;;;;;;5019793;28;20234;-80
2021/01/09 08:05:11;;;;;;;46.80;20.45;;;1.30;99.90;;;;;;5020059;28;20215;-79
2021/01/09 08:07:38;;;;;;;88.95;24.75;;;1.30;99.90;;;;;;5014261;28;20187;-80
2021/01/09 08:10:20;;;;;;;45.45;20.15;;;1.30;99.90;;;;;;5021334;28;20196;-78
2021/01/09 08:12:47;;;;;;;54.65;20.35;;;1.40;99.90;;;;;;5020645;28;20271;-79
2021/01/09 08:15:14;;;;;;;59.47;22.50;;;1.40;99.90;;;;;;5023209;28;20223;-78
2021/01/09 08:17:40;;;;;;;89.50;24.90;;;1.50;99.90;;;;;;5022401;28;20204;-78
2021/01/09 08:20:11;;;;;;;135.82;27.55;;;1.50;99.90;;;;;;5022662;28;20196;-79
2021/01/09 08:22:39;;;;;;;70.28;23.40;;;1.50;99.90;;;;;;5022787;28;20207;-79
2021/01/09 08:25:09;;;;;;;62.63;24.08;;;1.50;99.90;;;;;;5023326;28;20196;-79
2021/01/09 08:27:43;;;;;;;65.80;24.30;;;1.60;99.90;;;;;;5022016;28;20247;-79
2021/01/09 08:30:15;;;;;;;70.30;24.33;;;1.60;99.90;;;;;;5023698;28;20181;-80
2021/01/09 08:32:41;;;;;;;102.47;24.95;;;1.60;99.90;;;;;;5024181;28;20189;-79
2021/01/09 08:35:09;;;;;;;59.70;24.23;;;1.70;99.90;;;;;;5022786;28;20193;-80
2021/01/09 08:37:35;;;;;;;105.32;25.35;;;1.70;99.90;;;;;;5027075;28;20632;-78
2021/01/09 08:40:16;;;;;;;46.78;20.58;;;1.70;99.90;;;;;;5023167;28;20200;-75
2021/01/09 08:42:57;;;;;;;120.53;26.83;;;1.80;99.90;;;;;;5023366;28;20190;-79
2021/01/09 08:45:54;;;;;;;74.10;24.80;;;1.80;99.90;;;;;;5025053;28;20547;-80
2021/01/09 08:48:23;;;;;;;71.35;21.85;;;1.80;99.90;;;;;;5023534;28;20189;-79
2021/01/09 08:51:02;;;;;;;50.70;21.77;;;1.90;99.90;;;;;;5022655;28;20206;-78
2021/01/09 08:53:35;;;;;;;108.78;21.45;;;1.90;99.90;;;;;;5022830;28;20259;-79
2021/01/09 08:56:03;;;;;;;48.25;19.48;;;1.90;99.90;;;;;;5022328;28;20224;-79
2021/01/09 08:58:35;;;;;;;42.15;19.27;;;2.00;99.90;;;;;;5022761;28;20684;-79
2021/01/09 09:01:04;;;;;;;39.45;18.30;;;2.00;99.90;;;;;;5023248;28;20203;-79
2021/01/09 09:03:32;;;;;;;71.15;22.10;;;2.10;99.90;;;;;;5022810;28;20276;-80
2021/01/09 09:06:05;;;;;;;48.17;20.15;;;2.10;99.90;;;;;;5028209;28;20234;-79
2021/01/09 09:08:34;;;;;;;44.15;20.30;;;2.10;99.90;;;;;;5022197;28;20205;-79
2021/01/09 09:11:02;;;;;;;50.60;20.88;;;2.20;99.90;;;;;;5021942;28;20219;-79
2021/01/09 09:13:28;;;;;;;48.17;20.88;;;2.10;99.90;;;;;;5022061;28;20195;-79
2021/01/09 09:15:55;;;;;;;42.38;19.48;;;2.20;99.90;;;;;;5021919;28;20221;-79
2021/01/09 09:18:21;;;;;;;45.78;21.70;;;2.30;99.90;;;;;;5022093;28;20194;-79
2021/01/09 09:20:50;;;;;;;56.67;23.27;;;2.30;99.90;;;;;;5021444;28;20200;-79
2021/01/09 09:23:19;;;;;;;47.90;21.83;;;2.20;99.90;;;;;;5020605;28;20270;-79
2021/01/09 09:25:46;;;;;;;49.15;21.70;;;2.20;99.90;;;;;;5021490;28;20216;-78
2021/01/09 09:28:12;;;;;;;49.42;20.70;;;2.30;99.90;;;;;;5021719;28;20200;-79
2021/01/09 09:30:38;;;;;;;69.65;23.95;;;2.30;99.90;;;;;;5021802;28;20197;-79
2021/01/09 09:33:13;;;;;;;66.95;24.10;;;2.40;99.90;;;;;;5020878;28;20197;-79
2021/01/09 09:35:39;;;;;;;102.45;25.40;;;2.50;99.90;;;;;;5025508;28;20231;-78
2021/01/09 09:38:06;;;;;;;66.10;25.02;;;2.50;99.90;;;;;;5022191;28;20307;-79
2021/01/09 09:40:33;;;;;;;76.43;24.73;;;2.50;99.90;;;;;;5021192;28;20196;-79
2021/01/09 09:43:13;;;;;;;70.07;28.90;;;2.50;99.90;;;;;;5016639;28;20199;-78
2021/01/09 09:45:40;;;;;;;71.97;26.50;;;2.50;99.90;;;;;;5016777;28;20995;-78
2021/01/09 09:48:07;;;;;;;65.75;26.45;;;2.50;99.90;;;;;;5017333;28;20200;-78
2021/01/09 09:50:35;;;;;;;196.95;33.45;;;2.40;99.90;;;;;;5019139;28;20202;-78
2021/01/09 09:53:05;;;;;;;83.78;27.95;;;2.50;99.90;;;;;;5018114;28;20202;-78
2021/01/09 09:55:31;;;;;;;67.22;26.45;;;2.50;99.90;;;;;;5017467;28;20705;-79
2021/01/09 09:58:05;;;;;;;123.97;31.48;;;2.50;99.90;;;;;;5018679;28;20198;-78
2021/01/09 10:00:31;;;;;;;96.88;30.98;;;2.60;99.90;;;;;;5019432;28;20201;-78
2021/01/09 10:02:58;;;;;;;118.70;32.10;;;2.60;99.90;;;;;;5019480;28;20593;-79
2021/01/09 10:05:24;;;;;;;99.30;31.95;;;2.60;99.90;;;;;;5021015;28;20248;-79
2021/01/09 10:08:11;;;;;;;95.13;32.85;;;2.70;99.90;;;;;;5130285;22;20215;-85
2021/01/09 10:10:37;;;;;;;132.60;33.90;;;2.70;99.90;;;;;;5019634;28;20203;-85
2021/01/09 10:13:04;;;;;;;89.03;29.42;;;2.60;99.90;;;;;;5024801;28;20195;-87
2021/01/09 10:15:31;;;;;;;105.60;30.55;;;2.50;99.90;;;;;;5025714;28;20201;-84
2021/01/09 10:18:01;;;;;;;103.07;32.80;;;2.40;99.90;;;;;;5025553;28;20304;-84
2021/01/09 10:20:28;;;;;;;96.57;32.95;;;2.40;99.90;;;;;;5026648;28;20193;-83
2021/01/09 10:22:56;;;;;;;109.88;32.95;;;2.50;99.90;;;;;;5025269;28;20196;-87
2021/01/09 10:25:43;;;;;;;103.22;32.42;;;2.40;99.90;;;;;;5025779;28;20200;-85
2021/01/09 10:28:10;;;;;;;87.65;31.90;;;2.40;99.90;;;;;;5026145;28;20223;-87
2021/01/09 10:30:41;;;;;;;106.10;33.30;;;2.40;99.90;;;;;;5025298;28;20196;-86
2021/01/09 10:33:08;;;;;;;99.20;35.13;;;2.50;99.90;;;;;;5026409;28;20203;-85
2021/01/09 10:35:34;;;;;;;111.53;34.45;;;2.40;99.90;;;;;;5026335;28;20531;-85
2021/01/09 10:38:04;;;;;;;118.18;38.22;;;2.30;99.90;;;;;;5025350;28;20726;-85
2021/01/09 10:40:34;;;;;;;104.63;36.60;;;2.30;99.90;;;;;;5026695;28;20192;-85
2021/01/09 10:43:05;;;;;;;116.35;39.53;;;2.40;99.90;;;;;;5024810;28;20687;-85
2021/01/09 10:45:31;;;;;;;95.60;35.08;;;2.40;99.90;;;;;;5025338;28;20244;-85
2021/01/09 10:47:57;;;;;;;112.07;36.65;;;2.40;99.90;;;;;;5024694;28;20728;-85
2021/01/09 10:50:24;;;;;;;127.03;37.75;;;2.40;99.90;;;;;;5023857;28;20204;-84
2021/01/09 10:52:50;;;;;;;134.65;39.53;;;2.50;99.90;;;;;;5024576;28;20424;-84
2021/01/09 10:55:18;;;;;;;97.82;33.50;;;2.50;99.90;;;;;;5026907;28;20186;-86
2021/01/09 10:57:55;;;;;;;94.43;35.92;;;2.40;99.90;;;;;;5025402;28;20275;-85
2021/01/09 11:00:25;;;;;;;112.85;37.33;;;2.30;99.90;;;;;;5018399;28;20672;-85
2021/01/09 11:02:54;;;;;;;99.95;34.08;;;2.40;99.90;;;;;;5019843;28;20230;-85
2021/01/09 11:05:28;;;;;;;113.80;37.03;;;2.50;99.90;;;;;;5020052;28;20209;-86
2021/01/09 11:08:00;;;;;;;136.32;37.25;;;2.50;99.90;;;;;;5019858;28;20290;-84
2021/01/09 11:10:31;;;;;;;120.70;36.45;;;2.40;99.90;;;;;;5007000;28;20196;-85
2021/01/09 11:13:12;;;;;;;131.27;38.28;;;2.30;99.90;;;;;;5000436;28;20230;-85
2021/01/09 11:15:44;;;;;;;136.60;37.55;;;2.20;99.90;;;;;;5002746;28;20756;-86
2021/01/09 11:18:10;;;;;;;93.63;32.47;;;2.20;99.90;;;;;;5000252;28;20852;-84
2021/01/09 11:20:39;;;;;;;124.93;35.72;;;2.30;99.90;;;;;;5000888;28;20206;-85
2021/01/09 11:23:16;;;;;;;119.97;37.83;;;2.30;99.90;;;;;;5000221;28;20283;-84
2021/01/09 11:25:44;;;;;;;91.75;31.90;;;2.30;99.90;;;;;;5001603;28;20243;-86
2021/01/09 11:28:10;;;;;;;82.15;32.05;;;2.20;99.90;;;;;;5001873;28;20283;-85
2021/01/09 11:30:37;;;;;;;80.20;30.15;;;2.20;99.90;;;;;;5001200;28;20222;-85
2021/01/09 11:33:04;;;;;;;103.93;33.53;;;2.20;99.90;;;;;;5001609;28;20234;-85
2021/01/09 11:35:30;;;;;;;109.47;34.25;;;2.30;99.90;;;;;;5000716;28;20207;-85
2021/01/09 11:37:57;;;;;;;116.57;36.90;;;2.30;99.90;;;;;;5010441;28;20280;-84
2021/01/09 11:40:27;;;;;;;96.93;34.08;;;2.30;99.90;;;;;;5013544;28;20577;-84
2021/01/09 11:42:54;;;;;;;71.07;29.25;;;2.20;99.90;;;;;;5020459;28;20716;-86
2021/01/09 11:45:25;;;;;;;68.05;27.13;;;2.10;99.90;;;;;;5021829;28;20216;-84
2021/01/09 11:47:58;;;;;;;85.93;31.27;;;2.10;99.90;;;;;;5020120;28;20226;-84
2021/01/09 11:50:27;;;;;;;74.03;29.80;;;2.20;99.90;;;;;;5022576;28;20191;-85
2021/01/09 11:53:05;;;;;;;89.25;32.17;;;2.20;99.90;;;;;;5021312;28;20201;-85
2021/01/09 11:55:31;;;;;;;81.43;29.58;;;2.30;99.90;;;;;;5024017;28;20716;-86
2021/01/09 11:58:02;;;;;;;73.07;31.10;;;2.30;99.90;;;;;;5021584;28;20282;-85
2021/01/09 12:00:28;;;;;;;81.93;29.15;;;2.30;99.90;;;;;;5023006;28;20204;-85
2021/01/09 12:02:55;;;;;;;79.32;31.52;;;2.40;99.90;;;;;;5024578;28;20207;-86
2021/01/09 12:05:45;;;;;;;93.53;31.63;;;2.40;99.90;;;;;;5025541;28;20308;-85
2021/01/09 12:08:12;;;;;;;97.30;34.42;;;2.30;99.90;;;;;;5011468;28;20295;-85
2021/01/09 12:10:43;;;;;;;96.88;32.05;;;2.30;99.90;;;;;;5028230;28;20190;-84
2021/01/09 12:13:20;;;;;;;99.63;32.35;;;2.20;99.90;;;;;;5029459;28;20206;-88
2021/01/09 12:15:53;;;;;;;97.72;32.05;;;2.30;99.90;;;;;;5026901;28;20555;-85
2021/01/09 12:18:21;;;;;;;89.45;29.55;;;2.20;99.90;;;;;;5026959;28;20218;-85
2021/01/09 12:21:01;;;;;;;91.95;32.00;;;2.30;99.90;;;;;;5027044;28;20194;-85
2021/01/09 12:23:34;;;;;;;108.50;35.33;;;2.40;99.90;;;;;;5026588;28;20214;-87
2021/01/09 12:26:06;;;;;;;92.57;34.38;;;2.50;99.90;;;;;;5026737;28;20208;-86
2021/01/09 12:28:48;;;;;;;105.90;36.83;;;2.50;99.90;;;;;;5025946;28;20228;-85
2021/01/09 12:31:34;;;;;;;102.40;36.00;;;2.50;99.90;;;;;;5026923;28;20202;-86
2021/01/09 12:34:06;;;;;;;100.07;34.15;;;2.60;99.90;;;;;;5025505;28;20218;-83
2021/01/09 12:36:47;;;;;;;102.82;33.67;;;2.50;99.90;;;;;;5022753;28;20267;-86
2021/01/09 12:39:15;;;;;;;93.65;35.85;;;2.50;99.90;;;;;;5011245;28;20265;-85
2021/01/09 12:41:42;;;;;;;97.05;34.88;;;2.50;99.90;;;;;;5003330;28;20220;-87
2021/01/09 12:44:16;;;;;;;114.50;36.47;;;2.50;99.90;;;;;;5003719;28;20630;-84